Time;durP1;ratioP1;P1;durP2;ratioP2;P2;SDS_P1;SDS_P2;PMS_P1;PMS_P2;Temp;Humidity;BMP_temperature;BMP_pressure;BME280_temperature;BME280_humidity;BME280_pressure;Samples;Min_cycle;Max_cycle;Signal;HPM_P1;HPM_P2
2020/12/20 00:01:51;;;;;;;12.82;8.50;;;7.50;93.50;;;;;;5013227;28;20128;-89
2020/12/20 00:04:17;;;;;;;12.00;7.57;;;7.50;93.40;;;;;;5013862;28;20129;-89
2020/12/20 00:06:45;;;;;;;12.13;7.80;;;7.60;93.40;;;;;;5014460;28;20084;-88
2020/12/20 00:09:16;;;;;;;14.20;8.07;;;7.60;93.70;;;;;;5014849;28;20507;-88
2020/12/20 00:11:45;;;;;;;12.60;8.10;;;7.50;93.40;;;;;;5013423;28;20064;-89
2020/12/20 00:14:28;;;;;;;11.63;8.13;;;7.50;93.70;;;;;;5013079;28;20137;-88
2020/12/20 00:16:58;;;;;;;12.65;8.60;;;7.50;93.60;;;;;;5013917;28;20073;-89
2020/12/20 00:19:25;;;;;;;15.63;9.40;;;7.50;93.90;;;;;;5014759;28;20419;-89
2020/12/20 00:21:57;;;;;;;12.38;8.55;;;7.40;93.90;;;;;;5015174;28;20144;-88
2020/12/20 00:24:24;;;;;;;12.00;7.88;;;7.40;94.10;;;;;;5014151;28;20486;-89
2020/12/20 00:26:51;;;;;;;12.20;7.82;;;7.40;93.70;;;;;;5014384;28;20141;-89
2020/12/20 00:29:18;;;;;;;11.43;7.47;;;7.30;94.00;;;;;;5021395;28;20180;-89
2020/12/20 00:31:45;;;;;;;11.55;7.78;;;7.20;94.20;;;;;;5023621;28;20085;-90
2020/12/20 00:34:13;;;;;;;14.57;9.00;;;7.20;94.30;;;;;;5020255;28;20534;-88
2020/12/20 00:36:44;;;;;;;15.02;8.80;;;7.20;94.10;;;;;;5018056;28;20077;-89
2020/12/20 00:39:11;;;;;;;14.27;8.35;;;7.20;94.20;;;;;;5024510;28;20057;-88
2020/12/20 00:41:37;;;;;;;14.20;8.43;;;7.20;94.40;;;;;;5019247;28;20076;-89
2020/12/20 00:44:04;;;;;;;12.73;8.52;;;7.20;94.70;;;;;;4999950;28;20080;-88
2020/12/20 00:46:31;;;;;;;15.23;8.73;;;7.20;93.40;;;;;;4999336;28;20105;-89
2020/12/20 00:48:58;;;;;;;14.07;9.00;;;7.30;93.80;;;;;;5017969;28;20124;-88
2020/12/20 00:51:25;;;;;;;13.07;8.18;;;7.30;93.90;;;;;;5017031;28;20463;-88
2020/12/20 00:53:52;;;;;;;13.15;8.27;;;7.30;93.60;;;;;;5015875;28;20064;-88
2020/12/20 00:56:18;;;;;;;12.52;8.52;;;7.20;93.30;;;;;;5015703;28;20042;-88
2020/12/20 00:58:45;;;;;;;14.13;8.80;;;7.20;93.20;;;;;;4999864;28;20069;-88
2020/12/20 01:01:13;;;;;;;13.27;8.63;;;7.20;93.40;;;;;;4999236;28;20137;-89
2020/12/20 01:03:39;;;;;;;12.93;8.73;;;7.20;93.30;;;;;;5014278;28;20108;-89
2020/12/20 01:06:06;;;;;;;11.88;8.05;;;7.20;93.50;;;;;;4996249;28;20410;-88
2020/12/20 01:08:34;;;;;;;12.38;8.05;;;7.30;93.00;;;;;;5014892;28;20406;-88
2020/12/20 01:11:01;;;;;;;13.93;8.70;;;7.30;93.00;;;;;;5013462;28;20157;-89
2020/12/20 01:13:27;;;;;;;12.52;8.38;;;7.20;93.30;;;;;;5017226;28;20078;-88
2020/12/20 01:15:54;;;;;;;12.88;8.23;;;7.10;93.50;;;;;;5005624;28;20081;-91
2020/12/20 01:18:21;;;;;;;13.20;7.72;;;6.90;93.80;;;;;;5016350;28;20128;-90
2020/12/20 01:20:47;;;;;;;14.27;7.72;;;6.80;94.10;;;;;;5019153;28;20648;-89
2020/12/20 01:23:14;;;;;;;12.82;7.85;;;6.70;93.90;;;;;;5024126;28;20088;-88
2020/12/20 01:25:42;;;;;;;12.73;7.65;;;6.70;93.80;;;;;;4998999;28;20092;-91
2020/12/20 01:28:08;;;;;;;12.65;7.68;;;6.70;93.90;;;;;;5000491;28;20133;-90
2020/12/20 01:30:35;;;;;;;11.90;7.78;;;6.60;94.10;;;;;;5018308;28;20085;-92
2020/12/20 01:33:02;;;;;;;13.80;7.88;;;6.60;93.60;;;;;;5000274;28;20129;-91
2020/12/20 01:35:28;;;;;;;13.55;7.50;;;6.60;94.00;;;;;;5016702;28;20085;-89
2020/12/20 01:37:55;;;;;;;11.57;7.07;;;6.60;94.20;;;;;;5016581;28;20057;-89
2020/12/20 01:40:24;;;;;;;11.30;7.40;;;6.70;93.80;;;;;;4999273;28;20129;-89
2020/12/20 01:42:55;;;;;;;11.60;7.07;;;6.70;93.80;;;;;;5017702;28;20496;-92
2020/12/20 01:45:22;;;;;;;11.50;7.50;;;6.80;93.10;;;;;;5017513;28;20158;-89
2020/12/20 01:47:49;;;;;;;11.75;7.22;;;6.80;93.50;;;;;;5017002;28;20273;-90
2020/12/20 01:50:17;;;;;;;12.15;7.45;;;6.80;93.20;;;;;;5016600;28;20547;-89
2020/12/20 01:52:44;;;;;;;9.50;6.90;;;6.90;93.20;;;;;;5016672;28;20060;-90
2020/12/20 01:55:14;;;;;;;9.90;6.85;;;6.90;93.50;;;;;;5029366;28;20175;-90
2020/12/20 01:57:41;;;;;;;11.70;7.35;;;7.00;93.70;;;;;;5036456;28;20467;-90
2020/12/20 02:00:08;;;;;;;10.82;6.93;;;7.10;93.60;;;;;;5035900;28;20509;-88
2020/12/20 02:02:35;;;;;;;11.05;7.22;;;7.10;93.50;;;;;;5036526;28;20080;-90
2020/12/20 02:05:02;;;;;;;11.32;7.13;;;7.20;93.10;;;;;;5034749;28;20086;-89
2020/12/20 02:07:29;;;;;;;11.48;7.32;;;7.20;93.30;;;;;;5016724;28;20080;-89
2020/12/20 02:09:56;;;;;;;9.48;7.22;;;7.20;93.20;;;;;;5017565;28;20129;-90
2020/12/20 02:12:26;;;;;;;10.65;6.70;;;7.20;93.30;;;;;;5017185;28;20117;-90
2020/12/20 02:14:53;;;;;;;11.88;7.10;;;7.30;93.40;;;;;;5025885;28;20057;-91
2020/12/20 02:17:21;;;;;;;10.23;6.93;;;7.20;93.50;;;;;;5037265;28;20108;-90
2020/12/20 02:19:48;;;;;;;10.77;6.53;;;7.20;93.50;;;;;;5035900;28;20081;-91
2020/12/20 02:22:15;;;;;;;14.30;6.88;;;7.20;93.40;;;;;;5037213;28;20109;-91
2020/12/20 02:24:43;;;;;;;10.63;6.70;;;7.30;93.10;;;;;;5036667;28;20135;-89
2020/12/20 02:27:09;;;;;;;10.60;7.03;;;7.40;92.90;;;;;;5037196;28;20140;-89
2020/12/20 02:29:36;;;;;;;10.77;7.10;;;7.20;93.10;;;;;;5036767;28;20049;-90
2020/12/20 02:32:03;;;;;;;10.07;6.63;;;7.30;92.70;;;;;;5035728;28;20077;-89
2020/12/20 02:34:30;;;;;;;9.45;6.68;;;7.40;93.00;;;;;;5035835;28;20487;-90
2020/12/20 02:36:57;;;;;;;10.45;6.88;;;7.30;92.80;;;;;;5036141;28;20128;-89
2020/12/20 02:39:24;;;;;;;11.20;6.95;;;7.30;92.70;;;;;;5034336;28;20499;-90
2020/12/20 02:41:55;;;;;;;11.30;7.28;;;7.40;92.70;;;;;;5017985;28;20049;-89
2020/12/20 02:44:22;;;;;;;10.80;6.80;;;7.30;92.90;;;;;;5036289;28;20065;-90
2020/12/20 02:46:49;;;;;;;10.90;7.60;;;7.30;93.10;;;;;;5035209;28;20136;-90
2020/12/20 02:49:16;;;;;;;10.55;6.70;;;7.30;93.00;;;;;;5036018;28;20475;-89
2020/12/20 02:51:43;;;;;;;12.15;7.40;;;7.30;93.10;;;;;;5035790;28;20056;-89
2020/12/20 02:54:09;;;;;;;12.27;7.55;;;7.30;93.40;;;;;;5035490;28;20093;-90
2020/12/20 02:56:44;;;;;;;11.60;7.88;;;7.30;93.40;;;;;;5035266;28;20084;-90
2020/12/20 02:59:10;;;;;;;10.43;7.18;;;7.30;93.50;;;;;;5035046;28;20391;-90
2020/12/20 03:01:37;;;;;;;10.90;6.78;;;7.20;93.50;;;;;;5035061;28;20076;-90
2020/12/20 03:04:04;;;;;;;12.82;7.10;;;7.20;93.80;;;;;;5035707;28;20172;-90
2020/12/20 03:06:30;;;;;;;9.65;6.57;;;7.10;94.20;;;;;;5034527;28;20079;-90
2020/12/20 03:08:57;;;;;;;11.90;6.70;;;7.00;94.40;;;;;;5036067;28;20148;-89
2020/12/20 03:11:24;;;;;;;10.27;6.38;;;7.00;94.50;;;;;;5035543;28;20473;-90
2020/12/20 03:13:52;;;;;;;11.90;7.10;;;7.00;94.30;;;;;;5034653;28;20076;-91
2020/12/20 03:16:18;;;;;;;10.18;6.05;;;7.10;94.20;;;;;;5033007;28;20053;-90
2020/12/20 03:18:45;;;;;;;10.50;6.72;;;6.90;94.30;;;;;;5015111;28;20148;-89
2020/12/20 03:21:12;;;;;;;10.80;7.05;;;6.90;94.20;;;;;;5016893;28;20096;-90
2020/12/20 03:23:39;;;;;;;10.35;6.50;;;6.90;94.20;;;;;;5035603;28;20128;-90
2020/12/20 03:26:07;;;;;;;10.63;6.60;;;6.90;93.90;;;;;;5034745;28;20133;-90
2020/12/20 03:28:34;;;;;;;10.20;6.55;;;7.00;93.90;;;;;;5034562;28;20140;-89
2020/12/20 03:31:02;;;;;;;10.77;6.72;;;7.00;93.70;;;;;;5034480;28;20475;-89
2020/12/20 03:33:29;;;;;;;11.00;7.07;;;7.10;94.10;;;;;;5034173;28;20132;-91
2020/12/20 03:35:55;;;;;;;10.32;6.80;;;7.10;94.30;;;;;;5034504;28;20069;-90
2020/12/20 03:38:22;;;;;;;9.30;6.55;;;7.10;94.40;;;;;;5035138;28;20467;-90
2020/12/20 03:40:48;;;;;;;12.82;7.68;;;7.10;94.50;;;;;;5034272;28;20148;-89
2020/12/20 03:43:15;;;;;;;12.00;8.00;;;7.20;94.50;;;;;;5032905;28;20545;-92
2020/12/20 03:45:42;;;;;;;12.35;7.93;;;7.20;94.50;;;;;;5034592;28;20233;-92
2020/12/20 03:48:10;;;;;;;13.00;7.65;;;7.20;94.50;;;;;;5033037;28;20080;-91
2020/12/20 03:50:36;;;;;;;14.20;8.13;;;7.30;94.40;;;;;;5034786;28;20585;-89
2020/12/20 03:53:03;;;;;;;12.77;7.88;;;7.20;94.50;;;;;;5034572;28;20046;-89
2020/12/20 03:55:29;;;;;;;13.35;8.23;;;7.30;94.60;;;;;;5038875;28;20128;-89
2020/12/20 03:57:56;;;;;;;12.27;7.80;;;7.30;94.50;;;;;;5034915;28;20466;-89
2020/12/20 04:00:23;;;;;;;19.75;10.80;;;7.20;94.60;;;;;;5034693;28;20133;-91
2020/12/20 04:02:49;;;;;;;15.85;9.32;;;7.20;94.60;;;;;;5033856;28;20063;-90
2020/12/20 04:05:17;;;;;;;11.15;7.22;;;7.20;94.80;;;;;;5034926;28;20567;-90
2020/12/20 04:07:43;;;;;;;12.70;7.80;;;7.10;94.70;;;;;;5036342;28;20203;-91
2020/12/20 04:10:10;;;;;;;10.45;6.80;;;7.10;94.80;;;;;;5040158;28;20076;-89
2020/12/20 04:12:37;;;;;;;11.18;6.68;;;6.90;95.00;;;;;;5044223;28;20107;-91
2020/12/20 04:15:05;;;;;;;11.05;6.80;;;7.00;95.20;;;;;;5024737;28;20113;-91
2020/12/20 04:17:32;;;;;;;10.60;6.82;;;6.80;95.50;;;;;;5042642;28;20073;-91
2020/12/20 04:19:58;;;;;;;11.55;7.03;;;6.80;95.60;;;;;;5038551;28;20144;-90
2020/12/20 04:22:26;;;;;;;10.45;7.10;;;6.80;95.30;;;;;;5036540;28;20546;-90
2020/12/20 04:24:52;;;;;;;9.73;6.65;;;6.70;95.50;;;;;;5034252;28;20125;-90
2020/12/20 04:27:19;;;;;;;11.05;7.15;;;6.90;95.80;;;;;;5034094;28;20449;-90
2020/12/20 04:29:45;;;;;;;10.63;6.93;;;6.80;95.40;;;;;;5033554;28;20052;-90
2020/12/20 04:32:12;;;;;;;11.80;7.10;;;6.70;95.30;;;;;;5034438;28;20042;-91
2020/12/20 04:34:39;;;;;;;11.98;7.65;;;6.70;95.30;;;;;;5033825;28;20419;-91
2020/12/20 04:37:05;;;;;;;12.27;7.35;;;6.60;95.20;;;;;;5032432;28;20060;-90
2020/12/20 04:39:33;;;;;;;12.68;7.38;;;6.70;95.20;;;;;;5033797;28;20519;-90
2020/12/20 04:42:00;;;;;;;11.90;7.32;;;6.50;95.30;;;;;;5033377;28;20132;-90
2020/12/20 04:44:27;;;;;;;13.73;7.60;;;6.60;95.20;;;;;;5033143;28;20076;-89
2020/12/20 04:46:55;;;;;;;10.02;6.80;;;6.80;95.40;;;;;;5034399;28;20132;-90
2020/12/20 04:49:23;;;;;;;12.07;6.97;;;6.80;95.40;;;;;;5034016;28;20153;-91
2020/12/20 04:51:51;;;;;;;11.50;6.82;;;6.90;95.60;;;;;;5033935;28;20144;-91
2020/12/20 04:54:18;;;;;;;12.95;7.63;;;6.90;95.40;;;;;;5032828;28;20061;-91
2020/12/20 04:56:46;;;;;;;11.48;7.45;;;7.10;95.20;;;;;;5033771;28;20049;-88
2020/12/20 04:59:13;;;;;;;12.15;7.10;;;6.90;95.00;;;;;;5032379;28;20144;-90
2020/12/20 05:01:41;;;;;;;9.50;6.80;;;6.90;95.10;;;;;;5036713;28;20100;-90
2020/12/20 05:04:08;;;;;;;13.25;8.05;;;6.90;95.20;;;;;;5037963;28;20045;-91
2020/12/20 05:06:34;;;;;;;12.77;7.22;;;7.00;95.10;;;;;;5038505;28;20128;-91
2020/12/20 05:09:03;;;;;;;11.27;6.95;;;6.90;95.30;;;;;;5037463;28;20128;-90
2020/12/20 05:11:36;;;;;;;12.35;7.20;;;7.00;95.30;;;;;;5037061;28;20498;-90
2020/12/20 05:14:05;;;;;;;11.05;7.65;;;7.00;95.00;;;;;;5037005;28;20515;-90
2020/12/20 05:16:36;;;;;;;12.00;7.68;;;7.00;95.10;;;;;;5037059;28;20077;-91
2020/12/20 05:19:05;;;;;;;12.80;7.20;;;7.00;95.20;;;;;;5039112;28;20061;-90
2020/12/20 05:21:32;;;;;;;13.15;8.32;;;7.00;95.30;;;;;;5035471;28;20124;-90
2020/12/20 05:24:00;;;;;;;11.43;6.97;;;7.00;95.20;;;;;;5038187;28;20137;-91
2020/12/20 05:26:28;;;;;;;11.45;7.05;;;7.00;95.10;;;;;;5039362;28;20085;-90
2020/12/20 05:29:09;;;;;;;12.50;7.15;;;7.00;95.10;;;;;;5040729;28;20132;-91
2020/12/20 05:31:36;;;;;;;12.07;7.60;;;7.10;95.10;;;;;;5040450;28;20403;-92
2020/12/20 05:34:03;;;;;;;12.20;7.25;;;7.00;94.90;;;;;;5038015;28;20124;-91
2020/12/20 05:36:34;;;;;;;11.32;6.75;;;7.00;95.00;;;;;;5028394;28;20145;-91
2020/12/20 05:39:16;;;;;;;10.30;6.38;;;7.00;95.20;;;;;;5017801;28;20126;-91
2020/12/20 05:41:43;;;;;;;11.40;6.80;;;7.00;95.10;;;;;;5025672;28;20100;-91
2020/12/20 05:44:24;;;;;;;10.85;6.68;;;7.00;95.10;;;;;;5036937;28;20056;-91
2020/12/20 05:46:51;;;;;;;12.15;6.68;;;6.90;95.20;;;;;;5038005;28;20041;-91
2020/12/20 05:49:20;;;;;;;10.30;6.70;;;6.90;95.30;;;;;;5053616;28;20056;-90
2020/12/20 05:52:05;;;;;;;9.13;6.10;;;6.90;95.40;;;;;;5044405;28;20045;-91
2020/12/20 05:54:38;;;;;;;9.77;6.60;;;6.90;95.30;;;;;;5030786;28;20305;-90
2020/12/20 05:57:13;;;;;;;9.43;6.30;;;6.90;95.30;;;;;;5017411;28;20089;-89
2020/12/20 05:59:42;;;;;;;9.65;6.45;;;6.90;95.40;;;;;;5017786;28;20101;-91
2020/12/20 06:02:09;;;;;;;10.90;6.47;;;7.10;95.60;;;;;;5018159;28;20058;-91
2020/12/20 06:04:37;;;;;;;12.20;7.05;;;7.00;95.40;;;;;;5018028;28;20132;-91
2020/12/20 06:07:07;;;;;;;12.00;7.53;;;7.00;95.40;;;;;;5017920;28;20042;-91
2020/12/20 06:09:47;;;;;;;10.77;7.13;;;7.10;95.20;;;;;;4999881;28;20042;-89
2020/12/20 06:12:19;;;;;;;11.18;7.13;;;7.00;95.20;;;;;;5017244;28;20084;-90
2020/12/20 06:14:48;;;;;;;10.80;7.03;;;7.10;95.30;;;;;;5017469;28;20104;-90
2020/12/20 06:17:19;;;;;;;11.18;7.18;;;7.20;95.30;;;;;;5014428;28;20073;-89
2020/12/20 06:19:55;;;;;;;13.55;7.25;;;7.00;95.30;;;;;;5017465;28;20046;-89
2020/12/20 06:22:25;;;;;;;10.85;7.30;;;7.00;95.30;;;;;;5017197;28;20053;-90
2020/12/20 06:24:55;;;;;;;11.93;6.88;;;6.90;95.20;;;;;;5016252;28;20066;-89
2020/12/20 06:27:24;;;;;;;11.63;7.55;;;6.90;95.30;;;;;;5016617;28;20092;-91
2020/12/20 06:29:54;;;;;;;12.82;7.45;;;7.00;95.30;;;;;;5018268;28;20588;-91
2020/12/20 06:32:33;;;;;;;11.57;7.28;;;6.90;95.50;;;;;;5018990;28;20480;-90
2020/12/20 06:35:10;;;;;;;11.70;6.63;;;6.80;95.50;;;;;;5016910;28;20536;-90
2020/12/20 06:37:43;;;;;;;12.00;6.82;;;7.00;95.60;;;;;;5012803;28;20125;-89
2020/12/20 06:40:11;;;;;;;10.07;6.82;;;6.90;95.50;;;;;;5009918;28;20141;-89
2020/12/20 06:42:41;;;;;;;10.77;6.65;;;6.80;95.50;;;;;;5015534;28;20137;-90
2020/12/20 06:45:14;;;;;;;11.43;7.07;;;6.70;95.70;;;;;;4998834;28;20053;-90
2020/12/20 06:47:42;;;;;;;10.90;7.07;;;6.60;95.50;;;;;;5015607;28;20527;-90
2020/12/20 06:50:09;;;;;;;11.50;6.95;;;6.50;95.80;;;;;;5016827;28;20141;-90
2020/12/20 06:52:46;;;;;;;11.25;7.05;;;6.50;95.80;;;;;;5029383;28;20080;-91
2020/12/20 06:55:13;;;;;;;12.50;7.30;;;6.50;95.80;;;;;;5020498;28;20495;-91
2020/12/20 06:58:13;;;;;;;10.52;6.90;;;6.50;95.80;;;;;;5025073;28;20073;-90
2020/12/20 07:00:50;;;;;;;11.38;7.38;;;6.50;95.80;;;;;;5021358;28;20050;-91
2020/12/20 07:03:40;;;;;;;11.23;7.05;;;6.50;95.70;;;;;;5034414;28;20537;-91
2020/12/20 07:06:15;;;;;;;12.13;7.20;;;6.40;95.80;;;;;;5034499;28;20053;-90
2020/12/20 07:08:42;;;;;;;12.00;7.60;;;6.40;96.10;;;;;;5035045;28;20132;-90
2020/12/20 07:11:20;;;;;;;11.88;7.22;;;6.50;96.10;;;;;;5035192;28;20550;-90
2020/12/20 07:13:48;;;;;;;11.55;7.10;;;6.50;96.20;;;;;;5034893;28;20055;-90
2020/12/20 07:16:18;;;;;;;13.73;7.63;;;6.70;96.00;;;;;;5034708;28;20088;-90
2020/12/20 07:18:51;;;;;;;11.90;7.05;;;6.70;95.80;;;;;;5034804;28;20049;-90
2020/12/20 07:22:03;;;;;;;10.93;6.90;;;6.70;95.60;;;;;;5034633;28;20621;-88
2020/12/20 07:24:32;;;;;;;10.35;6.72;;;6.80;95.50;;;;;;5034731;28;20134;-89
2020/12/20 07:27:02;;;;;;;10.75;7.47;;;6.90;95.40;;;;;;5047301;28;20053;-90
2020/12/20 07:29:31;;;;;;;11.13;6.93;;;7.00;95.50;;;;;;5028577;28;20132;-90
2020/12/20 07:32:01;;;;;;;10.60;7.00;;;6.90;95.70;;;;;;5034130;28;20068;-90
2020/12/20 07:34:28;;;;;;;10.73;6.68;;;6.90;95.60;;;;;;5033536;28;20049;-91
2020/12/20 07:36:56;;;;;;;12.30;6.90;;;6.90;95.40;;;;;;5014384;28;20057;-90
2020/12/20 07:39:25;;;;;;;10.75;6.85;;;7.00;95.50;;;;;;5026827;28;20085;-92
2020/12/20 07:41:52;;;;;;;12.55;7.97;;;7.00;95.40;;;;;;5033725;28;20053;-88
2020/12/20 07:44:19;;;;;;;12.85;9.00;;;6.90;95.30;;;;;;5030810;28;20526;-90
2020/12/20 07:46:45;;;;;;;14.07;8.90;;;7.00;95.40;;;;;;5031168;28;20136;-83
2020/12/20 07:49:15;;;;;;;14.40;8.80;;;7.00;95.40;;;;;;5033215;28;20449;-85
2020/12/20 07:51:42;;;;;;;12.20;8.43;;;6.90;95.60;;;;;;5032265;28;20132;-81
2020/12/20 07:54:11;;;;;;;11.40;8.02;;;7.00;95.60;;;;;;5029115;28;20590;-83
2020/12/20 07:56:41;;;;;;;10.50;7.90;;;7.00;95.60;;;;;;5029734;28;20041;-83
2020/12/20 07:59:09;;;;;;;11.32;7.70;;;7.00;95.50;;;;;;5032923;28;20515;-81
2020/12/20 08:01:38;;;;;;;14.93;8.20;;;7.00;95.20;;;;;;5031046;28;20407;-82
2020/12/20 08:04:08;;;;;;;13.63;8.55;;;7.10;95.40;;;;;;5031376;28;20144;-83
2020/12/20 08:06:38;;;;;;;11.63;7.93;;;7.10;95.40;;;;;;5032458;28;20053;-82
2020/12/20 08:09:09;;;;;;;12.20;8.13;;;7.00;95.30;;;;;;5032323;28;20578;-83
2020/12/20 08:11:38;;;;;;;11.18;7.60;;;7.00;95.50;;;;;;5034581;28;20138;-84
2020/12/20 08:14:07;;;;;;;11.23;7.30;;;7.00;95.60;;;;;;5030069;28;20099;-84
2020/12/20 08:16:36;;;;;;;12.07;8.13;;;7.10;95.60;;;;;;5032869;28;20136;-84
2020/12/20 08:19:06;;;;;;;11.32;7.38;;;7.10;95.60;;;;;;5026718;28;20449;-84
2020/12/20 08:21:53;;;;;;;12.50;7.70;;;7.10;95.40;;;;;;5029228;28;20132;-84
2020/12/20 08:24:21;;;;;;;12.70;8.02;;;7.10;95.60;;;;;;5026729;28;20064;-84
2020/12/20 08:26:48;;;;;;;12.93;8.35;;;7.20;95.50;;;;;;5013249;28;20462;-87
2020/12/20 08:29:17;;;;;;;11.50;7.93;;;7.10;95.60;;;;;;5013560;28;20559;-84
2020/12/20 08:31:45;;;;;;;11.23;7.15;;;7.20;95.50;;;;;;5014156;28;20054;-91
2020/12/20 08:34:21;;;;;;;13.50;8.63;;;7.30;95.70;;;;;;5014130;28;20137;-88
2020/12/20 08:36:52;;;;;;;13.93;9.50;;;7.20;95.70;;;;;;5023724;28;20141;-87
2020/12/20 08:39:23;;;;;;;13.65;9.38;;;7.20;95.80;;;;;;5037413;28;20136;-87
2020/12/20 08:42:02;;;;;;;14.95;9.77;;;7.20;95.80;;;;;;5036870;28;20049;-87
2020/12/20 08:44:30;;;;;;;14.75;9.65;;;7.20;95.90;;;;;;5033224;28;20506;-86
2020/12/20 08:47:07;;;;;;;13.18;8.75;;;7.30;95.80;;;;;;5033218;28;20060;-88
2020/12/20 08:49:34;;;;;;;13.40;8.85;;;7.40;95.70;;;;;;5001329;28;20140;-87
2020/12/20 08:52:11;;;;;;;13.77;9.15;;;7.40;94.80;;;;;;5017686;28;20056;-89
2020/12/20 08:54:38;;;;;;;12.32;8.63;;;7.50;94.70;;;;;;5033856;28;20064;-88
2020/12/20 08:57:07;;;;;;;13.27;9.02;;;7.50;94.60;;;;;;5035743;28;20494;-88
2020/12/20 08:59:38;;;;;;;13.40;8.82;;;7.50;94.50;;;;;;5035476;28;20064;-87
2020/12/20 09:02:07;;;;;;;13.57;8.82;;;7.50;94.60;;;;;;5023026;28;20105;-87
2020/12/20 09:04:36;;;;;;;16.17;10.27;;;7.60;94.40;;;;;;5031376;28;20108;-87
2020/12/20 09:07:14;;;;;;;14.27;8.85;;;7.60;94.10;;;;;;4999304;28;20478;-87
2020/12/20 09:09:40;;;;;;;12.90;8.18;;;7.60;94.50;;;;;;5009863;28;20088;-86
2020/12/20 09:12:21;;;;;;;13.93;8.48;;;7.60;94.90;;;;;;5033187;28;20057;-88
2020/12/20 09:15:15;;;;;;;30.25;17.40;;;7.60;94.80;;;;;;5033524;28;20132;-88
2020/12/20 09:17:43;;;;;;;;;;;7.60;94.60;;;;;;4990428;28;20053;-86
2020/12/20 09:20:12;;;;;;;18.05;11.38;;;7.60;94.70;;;;;;5035618;28;20015;-86
2020/12/20 09:22:43;;;;;;;23.08;13.77;;;7.70;94.40;;;;;;5036981;28;20521;-85
2020/12/20 09:25:10;;;;;;;22.23;11.95;;;7.70;94.30;;;;;;5048007;28;20600;-87
2020/12/20 09:27:37;;;;;;;25.00;15.77;;;7.80;94.40;;;;;;5038041;28;20465;-87
2020/12/20 09:30:05;;;;;;;15.35;10.07;;;7.90;94.30;;;;;;5015771;28;20145;-89
2020/12/20 09:32:39;;;;;;;14.20;9.20;;;7.80;93.70;;;;;;5054190;28;20048;-89
2020/12/20 09:35:09;;;;;;;12.17;8.70;;;8.00;93.40;;;;;;5056717;28;20053;-89
2020/12/20 09:37:41;;;;;;;13.65;9.50;;;7.90;93.50;;;;;;5049691;28;20582;-89
2020/12/20 09:40:10;;;;;;;14.57;8.77;;;8.00;93.40;;;;;;5037755;28;20132;-90
2020/12/20 09:42:41;;;;;;;13.60;8.90;;;8.10;93.50;;;;;;5055921;28;20159;-89
2020/12/20 09:45:10;;;;;;;12.43;8.75;;;8.10;93.50;;;;;;5056270;28;20136;-91
2020/12/20 09:47:41;;;;;;;13.00;8.57;;;8.20;93.40;;;;;;5039052;28;20053;-89
2020/12/20 09:50:09;;;;;;;13.85;9.25;;;8.30;93.30;;;;;;5055897;28;20088;-88
2020/12/20 09:52:37;;;;;;;14.07;9.15;;;8.30;93.20;;;;;;5032977;28;20457;-88
2020/12/20 09:55:07;;;;;;;16.83;9.95;;;8.40;92.80;;;;;;5022854;28;20100;-89
2020/12/20 09:57:34;;;;;;;17.10;10.68;;;8.40;92.90;;;;;;4999380;28;20100;-88
2020/12/20 10:00:02;;;;;;;14.77;10.05;;;8.50;92.80;;;;;;5016625;28;20184;-86
2020/12/20 10:02:28;;;;;;;14.70;9.50;;;8.50;93.10;;;;;;5050188;28;20072;-87
2020/12/20 10:04:55;;;;;;;14.52;9.70;;;8.60;92.50;;;;;;5033972;28;20045;-88
2020/12/20 10:07:22;;;;;;;16.30;9.48;;;8.70;92.50;;;;;;5042131;28;20128;-86
2020/12/20 10:09:48;;;;;;;14.05;9.13;;;8.70;91.80;;;;;;5020599;28;20136;-86
2020/12/20 10:12:16;;;;;;;15.40;10.02;;;8.70;91.90;;;;;;5015469;28;20579;-85
2020/12/20 10:14:44;;;;;;;13.02;9.13;;;8.70;92.00;;;;;;5032298;28;20076;-87
2020/12/20 10:17:10;;;;;;;17.08;10.20;;;8.70;91.50;;;;;;5029322;28;20129;-92
2020/12/20 10:19:37;;;;;;;13.70;9.43;;;8.80;91.60;;;;;;5030042;28;20526;-89
2020/12/20 10:22:04;;;;;;;13.75;8.82;;;8.70;91.30;;;;;;5031558;28;20049;-89
2020/12/20 10:24:30;;;;;;;14.75;10.23;;;8.70;91.70;;;;;;5026819;28;20104;-92
2020/12/20 10:26:57;;;;;;;14.02;9.73;;;8.80;91.80;;;;;;5033972;28;20089;-89
2020/12/20 10:29:25;;;;;;;14.38;9.55;;;8.50;92.00;;;;;;5028526;28;20096;-86
2020/12/20 10:31:52;;;;;;;13.88;9.55;;;8.60;92.30;;;;;;5018290;28;20060;-87
2020/12/20 10:34:21;;;;;;;13.60;8.93;;;8.60;92.30;;;;;;5021484;28;20171;-94
2020/12/20 10:36:51;;;;;;;14.98;9.40;;;8.70;92.50;;;;;;5022532;28;20049;-89
2020/12/20 10:39:19;;;;;;;13.38;9.38;;;8.60;92.20;;;;;;5044141;28;20045;-86
2020/12/20 10:41:46;;;;;;;14.32;9.38;;;8.70;92.20;;;;;;5023313;28;20383;-90
2020/12/20 10:44:13;;;;;;;14.27;9.75;;;8.70;92.40;;;;;;5017087;28;20082;-88
2020/12/20 10:46:40;;;;;;;14.52;9.70;;;8.60;92.90;;;;;;5024666;28;20073;-88
2020/12/20 10:49:09;;;;;;;14.57;9.57;;;8.70;92.80;;;;;;4993884;28;20388;-91
2020/12/20 10:51:38;;;;;;;13.43;8.90;;;8.70;92.60;;;;;;5001596;28;20050;-96
2020/12/20 10:54:04;;;;;;;15.50;9.75;;;8.60;92.50;;;;;;5018661;28;20089;-89
2020/12/20 10:56:32;;;;;;;16.27;9.52;;;8.60;92.70;;;;;;5016614;28;20053;-90
2020/12/20 10:58:58;;;;;;;13.95;9.23;;;8.60;93.00;;;;;;4998944;28;20089;-85
2020/12/20 11:01:25;;;;;;;13.48;8.80;;;8.50;92.60;;;;;;4997200;28;20528;-87
2020/12/20 11:03:53;;;;;;;14.40;9.02;;;8.60;92.30;;;;;;5001427;28;20037;-88
2020/12/20 11:06:21;;;;;;;13.15;8.68;;;8.50;92.10;;;;;;5016827;28;20068;-85
2020/12/20 11:08:48;;;;;;;13.18;9.13;;;8.50;92.20;;;;;;5014794;28;20114;-85
2020/12/20 11:11:15;;;;;;;12.55;8.43;;;8.50;92.10;;;;;;5009427;28;20081;-84
2020/12/20 11:13:44;;;;;;;12.20;8.85;;;8.60;92.10;;;;;;5012774;28;20041;-85
2020/12/20 11:16:15;;;;;;;13.10;9.38;;;8.60;92.20;;;;;;5041247;28;20562;-85
2020/12/20 11:18:45;;;;;;;12.82;8.32;;;8.80;92.20;;;;;;5020497;28;20065;-91
2020/12/20 11:21:14;;;;;;;11.73;8.57;;;8.80;92.20;;;;;;5014127;28;20488;-89
2020/12/20 11:23:41;;;;;;;14.45;9.68;;;8.90;91.90;;;;;;5014844;28;20408;-85
2020/12/20 11:26:13;;;;;;;14.52;9.25;;;9.00;91.60;;;;;;4998517;28;20121;-82
2020/12/20 11:28:40;;;;;;;13.38;9.27;;;8.90;91.80;;;;;;5010893;28;20093;-86
2020/12/20 11:31:09;;;;;;;14.15;9.15;;;8.90;92.00;;;;;;4999786;28;20142;-87
2020/12/20 11:33:36;;;;;;;15.18;9.40;;;9.10;91.80;;;;;;5000056;28;20077;-85
2020/12/20 11:36:04;;;;;;;14.73;9.43;;;9.10;91.50;;;;;;5011569;28;20089;-88
2020/12/20 11:38:32;;;;;;;15.10;9.50;;;9.30;91.40;;;;;;5021298;28;20050;-88
2020/12/20 11:40:59;;;;;;;13.52;8.90;;;9.40;91.30;;;;;;5020990;28;20061;-87
2020/12/20 11:43:27;;;;;;;13.10;8.60;;;9.50;90.90;;;;;;5015516;28;20488;-87
2020/12/20 11:45:54;;;;;;;12.73;8.93;;;9.70;90.60;;;;;;5017261;28;20084;-88
2020/12/20 11:48:20;;;;;;;14.35;8.80;;;9.90;90.40;;;;;;5014515;28;20069;-88
2020/12/20 11:50:47;;;;;;;13.18;8.38;;;10.00;89.30;;;;;;5015138;28;20081;-88
2020/12/20 11:53:14;;;;;;;11.48;8.27;;;10.10;89.70;;;;;;5014523;28;20145;-87
2020/12/20 11:55:42;;;;;;;13.13;9.35;;;10.30;89.80;;;;;;4994760;28;20132;-84
2020/12/20 11:58:12;;;;;;;12.68;8.85;;;10.30;89.20;;;;;;4993839;28;20137;-85
2020/12/20 12:00:41;;;;;;;12.90;8.70;;;10.50;89.00;;;;;;4981436;28;20141;-84
2020/12/20 12:03:08;;;;;;;12.35;8.52;;;10.50;89.40;;;;;;4995201;28;20061;-84
2020/12/20 12:05:37;;;;;;;11.95;8.27;;;10.60;89.50;;;;;;4960287;28;20050;-84
2020/12/20 12:08:06;;;;;;;12.18;8.23;;;10.60;89.50;;;;;;5010504;28;20136;-84
2020/12/20 12:10:34;;;;;;;10.43;7.70;;;10.60;86.20;;;;;;5011747;28;20103;-84
2020/12/20 12:13:02;;;;;;;13.75;8.50;;;10.70;86.10;;;;;;5014516;28;20140;-91
2020/12/20 12:15:31;;;;;;;11.27;7.97;;;10.70;87.50;;;;;;5000971;28;20076;-90
2020/12/20 12:17:58;;;;;;;12.27;8.30;;;10.70;87.90;;;;;;5016688;28;20056;-87
2020/12/20 12:20:24;;;;;;;12.23;8.40;;;10.70;88.20;;;;;;5006422;28;20069;-86
2020/12/20 12:22:51;;;;;;;11.98;8.05;;;10.70;87.40;;;;;;5008228;28;20089;-92
2020/12/20 12:25:18;;;;;;;14.43;8.88;;;10.80;86.30;;;;;;5005426;28;20064;-87
2020/12/20 12:27:45;;;;;;;12.27;8.77;;;10.80;86.80;;;;;;5027186;28;20077;-91
2020/12/20 12:30:13;;;;;;;12.20;8.02;;;10.80;87.40;;;;;;5045042;28;20046;-89
2020/12/20 12:32:40;;;;;;;11.88;8.18;;;10.90;87.10;;;;;;5024321;28;20432;-90
2020/12/20 12:35:08;;;;;;;14.10;8.95;;;10.90;88.10;;;;;;5036511;28;20046;-86
2020/12/20 12:37:35;;;;;;;12.25;8.35;;;10.90;87.80;;;;;;5019503;28;20495;-85
2020/12/20 12:40:04;;;;;;;13.63;8.40;;;10.90;87.70;;;;;;5023755;28;20072;-86
2020/12/20 12:42:30;;;;;;;12.10;8.63;;;11.00;85.90;;;;;;5012967;28;20088;-87
2020/12/20 12:44:57;;;;;;;13.68;8.77;;;10.90;86.70;;;;;;5012951;28;20137;-88
2020/12/20 12:47:25;;;;;;;13.60;8.52;;;11.00;86.40;;;;;;5007368;28;20148;-94
2020/12/20 12:49:51;;;;;;;11.32;7.63;;;11.00;86.70;;;;;;5012040;28;20145;-86
2020/12/20 12:52:18;;;;;;;12.13;8.50;;;10.90;86.60;;;;;;5005433;28;20523;-87
2020/12/20 12:54:45;;;;;;;10.45;7.85;;;10.90;85.50;;;;;;4997152;28;20141;-87